sensor_id;sensor_type;location;lat;lon;timestamp;pressure;altitude;pressure_sealevel;temperature
73734;BMP280;62039;50.000;9.064;2024-03-06T00:01:08;100431.06;;;8.06
73734;BMP280;62039;50.000;9.064;2024-03-06T00:03:35;100426.69;;;8.07
73734;BMP280;62039;50.000;9.064;2024-03-06T00:06:02;100428.59;;;8.05
73734;BMP280;62039;50.000;9.064;2024-03-06T00:08:29;100431.22;;;8.05
73734;BMP280;62039;50.000;9.064;2024-03-06T00:10:56;100433.94;;;8.03
73734;BMP280;62039;50.000;9.064;2024-03-06T00:13:23;100429.72;;;8.02
73734;BMP280;62039;50.000;9.064;2024-03-06T00:15:53;100429.72;;;8.02
73734;BMP280;62039;50.000;9.064;2024-03-06T00:18:20;100426.44;;;8.00
73734;BMP280;62039;50.000;9.064;2024-03-06T00:20:47;100438.50;;;8.01
73734;BMP280;62039;50.000;9.064;2024-03-06T00:23:13;100435.06;;;8.01
73734;BMP280;62039;50.000;9.064;2024-03-06T00:25:41;100432.59;;;7.99
73734;BMP280;62039;50.000;9.064;2024-03-06T00:28:08;100446.56;;;7.98
73734;BMP280;62039;50.000;9.064;2024-03-06T00:30:34;100445.72;;;7.98
73734;BMP280;62039;50.000;9.064;2024-03-06T00:33:04;100450.13;;;7.97
73734;BMP280;62039;50.000;9.064;2024-03-06T00:35:31;100452.06;;;7.95
73734;BMP280;62039;50.000;9.064;2024-03-06T00:37:58;100451.22;;;7.95
73734;BMP280;62039;50.000;9.064;2024-03-06T00:40:25;100457.41;;;7.94
73734;BMP280;62039;50.000;9.064;2024-03-06T00:42:52;100463.41;;;7.94
73734;BMP280;62039;50.000;9.064;2024-03-06T00:45:19;100460.94;;;7.93
73734;BMP280;62039;50.000;9.064;2024-03-06T00:47:46;100461.91;;;7.92
73734;BMP280;62039;50.000;9.064;2024-03-06T00:50:16;100458.47;;;7.91
73734;BMP280;62039;50.000;9.064;2024-03-06T00:52:43;100473.25;;;7.91
73734;BMP280;62039;50.000;9.064;2024-03-06T00:55:10;100471.63;;;7.90
73734;BMP280;62039;50.000;9.064;2024-03-06T00:57:37;100474.38;;;7.88
73734;BMP280;62039;50.000;9.064;2024-03-06T01:00:05;100469.19;;;7.88
73734;BMP280;62039;50.000;9.064;2024-03-06T01:02:32;100472.75;;;7.87
73734;BMP280;62039;50.000;9.064;2024-03-06T01:04:59;100472.75;;;7.87
73734;BMP280;62039;50.000;9.064;2024-03-06T01:07:30;100481.50;;;7.86
73734;BMP280;62039;50.000;9.064;2024-03-06T01:09:57;100481.63;;;7.84
73734;BMP280;62039;50.000;9.064;2024-03-06T01:12:24;100481.75;;;7.83
73734;BMP280;62039;50.000;9.064;2024-03-06T01:14:51;100480.97;;;7.82
73734;BMP280;62039;50.000;9.064;2024-03-06T01:17:18;100490.53;;;7.82
73734;BMP280;62039;50.000;9.064;2024-03-06T01:19:45;100481.09;;;7.81
73734;BMP280;62039;50.000;9.064;2024-03-06T01:22:12;100480.41;;;7.79
73734;BMP280;62039;50.000;9.064;2024-03-06T01:24:42;100496.97;;;7.78
73734;BMP280;62039;50.000;9.064;2024-03-06T01:27:09;100495.31;;;7.77
73734;BMP280;62039;50.000;9.064;2024-03-06T01:29:36;100492.88;;;7.75
73734;BMP280;62039;50.000;9.064;2024-03-06T01:32:03;100495.47;;;7.75
73734;BMP280;62039;50.000;9.064;2024-03-06T01:34:30;100493.00;;;7.74
73734;BMP280;62039;50.000;9.064;2024-03-06T01:36:57;100495.72;;;7.72
73734;BMP280;62039;50.000;9.064;2024-03-06T01:39:24;100485.34;;;7.72
73734;BMP280;62039;50.000;9.064;2024-03-06T01:41:54;100487.25;;;7.70
73734;BMP280;62039;50.000;9.064;2024-03-06T01:44:21;100490.78;;;7.69
73734;BMP280;62039;50.000;9.064;2024-03-06T01:46:48;100484.81;;;7.69
73734;BMP280;62039;50.000;9.064;2024-03-06T01:49:15;100486.72;;;7.67
73734;BMP280;62039;50.000;9.064;2024-03-06T01:51:59;100493.81;;;7.65
73734;BMP280;62039;50.000;9.064;2024-03-06T01:54:26;100493.13;;;7.63
73734;BMP280;62039;50.000;9.064;2024-03-06T01:56:56;100495.72;;;7.63
73734;BMP280;62039;50.000;9.064;2024-03-06T01:59:25;100493.41;;;7.60
73734;BMP280;62039;50.000;9.064;2024-03-06T02:02:02;100497.91;;;7.58
73734;BMP280;62039;50.000;9.064;2024-03-06T02:04:31;100499.84;;;7.56
73734;BMP280;62039;50.000;9.064;2024-03-06T02:06:58;100491.38;;;7.54
73734;BMP280;62039;50.000;9.064;2024-03-06T02:09:25;100491.38;;;7.54
73734;BMP280;62039;50.000;9.064;2024-03-06T02:11:52;100495.97;;;7.50
73734;BMP280;62039;50.000;9.064;2024-03-06T02:14:22;100495.97;;;7.50
73734;BMP280;62039;50.000;9.064;2024-03-06T02:16:49;100496.25;;;7.47
73734;BMP280;62039;50.000;9.064;2024-03-06T02:19:16;100502.53;;;7.44
73734;BMP280;62039;50.000;9.064;2024-03-06T02:21:46;100503.47;;;7.43
73734;BMP280;62039;50.000;9.064;2024-03-06T02:24:13;100499.53;;;7.39
73734;BMP280;62039;50.000;9.064;2024-03-06T02:26:40;100491.84;;;7.38
73734;BMP280;62039;50.000;9.064;2024-03-06T02:29:07;100498.16;;;7.35
73734;BMP280;62039;50.000;9.064;2024-03-06T02:31:35;100499.25;;;7.33
73734;BMP280;62039;50.000;9.064;2024-03-06T02:34:01;100500.31;;;7.30
73734;BMP280;62039;50.000;9.064;2024-03-06T02:36:28;100495.41;;;7.27
73734;BMP280;62039;50.000;9.064;2024-03-06T02:38:58;100486.91;;;7.25
73734;BMP280;62039;50.000;9.064;2024-03-06T02:41:25;100487.34;;;7.21
73734;BMP280;62039;50.000;9.064;2024-03-06T02:43:52;100480.59;;;7.18
73734;BMP280;62039;50.000;9.064;2024-03-06T02:46:19;100486.88;;;7.16
73734;BMP280;62039;50.000;9.064;2024-03-06T02:48:46;100497.44;;;7.14
73734;BMP280;62039;50.000;9.064;2024-03-06T02:51:18;100491.66;;;7.11
73734;BMP280;62039;50.000;9.064;2024-03-06T02:53:44;100499.88;;;7.06
73734;BMP280;62039;50.000;9.064;2024-03-06T02:56:18;100495.88;;;7.02
73734;BMP280;62039;50.000;9.064;2024-03-06T02:58:45;100486.72;;;6.98
73734;BMP280;62039;50.000;9.064;2024-03-06T03:01:13;100495.59;;;6.95
73734;BMP280;62039;50.000;9.064;2024-03-06T03:03:41;100498.59;;;6.91
73734;BMP280;62039;50.000;9.064;2024-03-06T03:06:08;100504.06;;;6.88
73734;BMP280;62039;50.000;9.064;2024-03-06T03:08:35;100499.94;;;6.85
73734;BMP280;62039;50.000;9.064;2024-03-06T03:11:03;100499.38;;;6.82
73734;BMP280;62039;50.000;9.064;2024-03-06T03:13:33;100505.66;;;6.79
73734;BMP280;62039;50.000;9.064;2024-03-06T03:16:00;100499.91;;;6.76
73734;BMP280;62039;50.000;9.064;2024-03-06T03:18:26;100505.38;;;6.73
73734;BMP280;62039;50.000;9.064;2024-03-06T03:20:53;100503.97;;;6.68
73734;BMP280;62039;50.000;9.064;2024-03-06T03:23:20;100511.91;;;6.67
73734;BMP280;62039;50.000;9.064;2024-03-06T03:25:47;100516.53;;;6.63
73734;BMP280;62039;50.000;9.064;2024-03-06T03:28:15;100515.03;;;6.61
73734;BMP280;62039;50.000;9.064;2024-03-06T03:30:45;100516.09;;;6.58
73734;BMP280;62039;50.000;9.064;2024-03-06T03:33:12;100522.34;;;6.56
73734;BMP280;62039;50.000;9.064;2024-03-06T03:35:39;100520.03;;;6.53
73734;BMP280;62039;50.000;9.064;2024-03-06T03:38:06;100521.09;;;6.50
73734;BMP280;62039;50.000;9.064;2024-03-06T03:40:33;100519.59;;;6.48
73734;BMP280;62039;50.000;9.064;2024-03-06T03:43:00;100522.44;;;6.45
73734;BMP280;62039;50.000;9.064;2024-03-06T03:45:27;100518.31;;;6.42
73734;BMP280;62039;50.000;9.064;2024-03-06T03:47:56;100521.19;;;6.39
73734;BMP280;62039;50.000;9.064;2024-03-06T03:50:23;100523.31;;;6.34
73734;BMP280;62039;50.000;9.064;2024-03-06T03:52:50;100526.16;;;6.31
73734;BMP280;62039;50.000;9.064;2024-03-06T03:55:17;100522.84;;;6.29
73734;BMP280;62039;50.000;9.064;2024-03-06T03:57:44;100532.69;;;6.25
73734;BMP280;62039;50.000;9.064;2024-03-06T04:00:13;100528.56;;;6.23
73734;BMP280;62039;50.000;9.064;2024-03-06T04:02:40;100534.97;;;6.19
73734;BMP280;62039;50.000;9.064;2024-03-06T04:05:10;100534.25;;;6.17
73734;BMP280;62039;50.000;9.064;2024-03-06T04:07:37;100544.91;;;6.14
73734;BMP280;62039;50.000;9.064;2024-03-06T04:10:04;100543.50;;;6.10
73734;BMP280;62039;50.000;9.064;2024-03-06T04:12:32;100553.97;;;6.08
73734;BMP280;62039;50.000;9.064;2024-03-06T04:14:59;100555.06;;;6.06
73734;BMP280;62039;50.000;9.064;2024-03-06T04:17:26;100556.25;;;6.02
73734;BMP280;62039;50.000;9.064;2024-03-06T04:19:53;100559.13;;;5.99
73734;BMP280;62039;50.000;9.064;2024-03-06T04:22:22;100554.88;;;5.98
73734;BMP280;62039;50.000;9.064;2024-03-06T04:24:49;100548.31;;;5.94
73734;BMP280;62039;50.000;9.064;2024-03-06T04:27:16;100551.94;;;5.91
73734;BMP280;62039;50.000;9.064;2024-03-06T04:29:43;100552.88;;;5.90
73734;BMP280;62039;50.000;9.064;2024-03-06T04:32:10;100559.13;;;5.87
73734;BMP280;62039;50.000;9.064;2024-03-06T04:34:37;100569.78;;;5.84
73734;BMP280;62039;50.000;9.064;2024-03-06T04:37:04;100562.94;;;5.83
73734;BMP280;62039;50.000;9.064;2024-03-06T04:39:34;100570.00;;;5.81
73734;BMP280;62039;50.000;9.064;2024-03-06T04:42:01;100580.63;;;5.78
73734;BMP280;62039;50.000;9.064;2024-03-06T04:44:28;100577.34;;;5.76
73734;BMP280;62039;50.000;9.064;2024-03-06T04:46:55;100587.00;;;5.74
73734;BMP280;62039;50.000;9.064;2024-03-06T04:49:22;100577.59;;;5.73
73734;BMP280;62039;50.000;9.064;2024-03-06T04:51:49;100583.00;;;5.70
73734;BMP280;62039;50.000;9.064;2024-03-06T04:54:16;100590.91;;;5.69
73734;BMP280;62039;50.000;9.064;2024-03-06T04:56:45;100596.34;;;5.66
73734;BMP280;62039;50.000;9.064;2024-03-06T04:59:12;100596.47;;;5.64
73734;BMP280;62039;50.000;9.064;2024-03-06T05:01:39;100605.28;;;5.62
73734;BMP280;62039;50.000;9.064;2024-03-06T05:04:06;100607.22;;;5.60
73734;BMP280;62039;50.000;9.064;2024-03-06T05:06:47;100612.63;;;5.57
73734;BMP280;62039;50.000;9.064;2024-03-06T05:09:28;100612.88;;;5.54
73734;BMP280;62039;50.000;9.064;2024-03-06T05:12:11;100608.75;;;5.51
73734;BMP280;62039;50.000;9.064;2024-03-06T05:14:52;100620.16;;;5.48
73734;BMP280;62039;50.000;9.064;2024-03-06T05:17:33;100621.25;;;5.46
73734;BMP280;62039;50.000;9.064;2024-03-06T05:20:14;100632.53;;;5.45
73734;BMP280;62039;50.000;9.064;2024-03-06T05:22:55;100632.88;;;5.40
73734;BMP280;62039;50.000;9.064;2024-03-06T05:25:36;100633.13;;;5.37
73734;BMP280;62039;50.000;9.064;2024-03-06T05:28:19;100630.66;;;5.36
73734;BMP280;62039;50.000;9.064;2024-03-06T05:31:00;100631.75;;;5.33
73734;BMP280;62039;50.000;9.064;2024-03-06T05:33:41;100632.78;;;5.31
73734;BMP280;62039;50.000;9.064;2024-03-06T05:36:22;100623.47;;;5.28
73734;BMP280;62039;50.000;9.064;2024-03-06T05:39:03;100631.34;;;5.27
73734;BMP280;62039;50.000;9.064;2024-03-06T05:41:44;100632.31;;;5.26
73734;BMP280;62039;50.000;9.064;2024-03-06T05:44:27;100632.44;;;5.24
73734;BMP280;62039;50.000;9.064;2024-03-06T05:47:08;100636.78;;;5.24
73734;BMP280;62039;50.000;9.064;2024-03-06T05:49:49;100640.31;;;5.23
73734;BMP280;62039;50.000;9.064;2024-03-06T05:52:29;100640.31;;;5.23
73734;BMP280;62039;50.000;9.064;2024-03-06T05:55:10;100649.03;;;5.22
73734;BMP280;62039;50.000;9.064;2024-03-06T05:57:51;100661.03;;;5.23
73734;BMP280;62039;50.000;9.064;2024-03-06T06:00:35;100643.84;;;5.22
73734;BMP280;62039;50.000;9.064;2024-03-06T06:03:02;100655.03;;;5.22
73734;BMP280;62039;50.000;9.064;2024-03-06T06:05:29;100655.88;;;5.23
73734;BMP280;62039;50.000;9.064;2024-03-06T06:07:56;100656.69;;;5.23
73734;BMP280;62039;50.000;9.064;2024-03-06T06:10:23;100660.00;;;5.25
73734;BMP280;62039;50.000;9.064;2024-03-06T06:12:50;100665.28;;;5.24
73734;BMP280;62039;50.000;9.064;2024-03-06T06:15:17;100666.94;;;5.25
73734;BMP280;62039;50.000;9.064;2024-03-06T06:17:46;100678.25;;;5.24
73734;BMP280;62039;50.000;9.064;2024-03-06T06:20:13;100687.06;;;5.21
73734;BMP280;62039;50.000;9.064;2024-03-06T06:22:40;100681.19;;;5.19
73734;BMP280;62039;50.000;9.064;2024-03-06T06:25:08;100690.72;;;5.19
73734;BMP280;62039;50.000;9.064;2024-03-06T06:27:35;100692.59;;;5.17
73734;BMP280;62039;50.000;9.064;2024-03-06T06:30:02;100690.00;;;5.17
73734;BMP280;62039;50.000;9.064;2024-03-06T06:32:32;100692.59;;;5.17
73734;BMP280;62039;50.000;9.064;2024-03-06T06:35:03;100689.78;;;5.20
73734;BMP280;62039;50.000;9.064;2024-03-06T06:37:30;100690.72;;;5.19
73734;BMP280;62039;50.000;9.064;2024-03-06T06:39:57;100694.97;;;5.20
73734;BMP280;62039;50.000;9.064;2024-03-06T06:42:23;100695.66;;;5.22
73734;BMP280;62039;50.000;9.064;2024-03-06T06:44:52;100694.72;;;5.23
73734;BMP280;62039;50.000;9.064;2024-03-06T06:47:19;100707.66;;;5.23
73734;BMP280;62039;50.000;9.064;2024-03-06T06:49:46;100700.63;;;5.25
73734;BMP280;62039;50.000;9.064;2024-03-06T06:52:15;100712.63;;;5.26
73734;BMP280;62039;50.000;9.064;2024-03-06T06:54:42;100720.41;;;5.26
73734;BMP280;62039;50.000;9.064;2024-03-06T06:57:09;100713.47;;;5.26
73734;BMP280;62039;50.000;9.064;2024-03-06T06:59:36;100724.63;;;5.27
73734;BMP280;62039;50.000;9.064;2024-03-06T07:02:03;100719.44;;;5.27
73734;BMP280;62039;50.000;9.064;2024-03-06T07:04:30;100730.63;;;5.27
73734;BMP280;62039;50.000;9.064;2024-03-06T07:06:57;100727.94;;;5.29
73734;BMP280;62039;50.000;9.064;2024-03-06T07:09:27;100730.41;;;5.30
73734;BMP280;62039;50.000;9.064;2024-03-06T07:11:54;100730.31;;;5.32
73734;BMP280;62039;50.000;9.064;2024-03-06T07:14:21;100744.09;;;5.32
73734;BMP280;62039;50.000;9.064;2024-03-06T07:16:48;100735.38;;;5.33
73734;BMP280;62039;50.000;9.064;2024-03-06T07:19:15;100748.19;;;5.35
73734;BMP280;62039;50.000;9.064;2024-03-06T07:21:42;100749.84;;;5.36
73734;BMP280;62039;50.000;9.064;2024-03-06T07:24:08;100747.97;;;5.38
73734;BMP280;62039;50.000;9.064;2024-03-06T07:26:38;100751.28;;;5.40
73734;BMP280;62039;50.000;9.064;2024-03-06T07:29:05;100756.47;;;5.40
73734;BMP280;62039;50.000;9.064;2024-03-06T07:31:32;100747.72;;;5.41
73734;BMP280;62039;50.000;9.064;2024-03-06T07:33:59;100757.88;;;5.44
73734;BMP280;62039;50.000;9.064;2024-03-06T07:36:26;100757.75;;;5.45
73734;BMP280;62039;50.000;9.064;2024-03-06T07:38:53;100761.88;;;5.48
73734;BMP280;62039;50.000;9.064;2024-03-06T07:41:20;100764.44;;;5.48
73734;BMP280;62039;50.000;9.064;2024-03-06T07:43:50;100766.81;;;5.51
73734;BMP280;62039;50.000;9.064;2024-03-06T07:46:17;100760.72;;;5.52
73734;BMP280;62039;50.000;9.064;2024-03-06T07:48:43;100764.13;;;5.53
73734;BMP280;62039;50.000;9.064;2024-03-06T07:51:10;100768.22;;;5.55
73734;BMP280;62039;50.000;9.064;2024-03-06T07:53:37;100765.63;;;5.55
73734;BMP280;62039;50.000;9.064;2024-03-06T07:56:05;100768.13;;;5.57
73734;BMP280;62039;50.000;9.064;2024-03-06T07:58:32;100772.25;;;5.59
73734;BMP280;62039;50.000;9.064;2024-03-06T08:01:02;100775.53;;;5.61
73734;BMP280;62039;50.000;9.064;2024-03-06T08:03:29;100774.59;;;5.62
73734;BMP280;62039;50.000;9.064;2024-03-06T08:05:56;100781.31;;;5.65
73734;BMP280;62039;50.000;9.064;2024-03-06T08:08:22;100773.31;;;5.68
73734;BMP280;62039;50.000;9.064;2024-03-06T08:10:49;100781.69;;;5.71
73734;BMP280;62039;50.000;9.064;2024-03-06T08:13:16;100784.16;;;5.73
73734;BMP280;62039;50.000;9.064;2024-03-06T08:15:43;100786.50;;;5.76
73734;BMP280;62039;50.000;9.064;2024-03-06T08:18:13;100781.94;;;5.79
73734;BMP280;62039;50.000;9.064;2024-03-06T08:20:40;100790.53;;;5.80
73734;BMP280;62039;50.000;9.064;2024-03-06T08:23:07;100786.75;;;5.84
73734;BMP280;62039;50.000;9.064;2024-03-06T08:25:35;100790.88;;;5.86
73734;BMP280;62039;50.000;9.064;2024-03-06T08:28:02;100785.56;;;5.88
73734;BMP280;62039;50.000;9.064;2024-03-06T08:30:29;100782.75;;;5.91
73734;BMP280;62039;50.000;9.064;2024-03-06T08:32:56;100791.25;;;5.93
73734;BMP280;62039;50.000;9.064;2024-03-06T08:35:26;100790.25;;;5.94
73734;BMP280;62039;50.000;9.064;2024-03-06T08:37:53;100795.34;;;5.96
73734;BMP280;62039;50.000;9.064;2024-03-06T08:40:20;100798.66;;;5.98
73734;BMP280;62039;50.000;9.064;2024-03-06T08:42:47;100799.38;;;6.00
73734;BMP280;62039;50.000;9.064;2024-03-06T08:45:14;100792.16;;;6.03
73734;BMP280;62039;50.000;9.064;2024-03-06T08:47:41;100800.53;;;6.07
73734;BMP280;62039;50.000;9.064;2024-03-06T08:50:09;100805.47;;;6.10
73734;BMP280;62039;50.000;9.064;2024-03-06T08:52:39;100800.06;;;6.13
73734;BMP280;62039;50.000;9.064;2024-03-06T08:55:07;100799.81;;;6.16
73734;BMP280;62039;50.000;9.064;2024-03-06T08:57:34;100806.44;;;6.20
73734;BMP280;62039;50.000;9.064;2024-03-06T09:00:02;100808.75;;;6.23
73734;BMP280;62039;50.000;9.064;2024-03-06T09:02:29;100812.78;;;6.27
73734;BMP280;62039;50.000;9.064;2024-03-06T09:04:56;100813.47;;;6.29
73734;BMP280;62039;50.000;9.064;2024-03-06T09:07:23;100824.34;;;6.34
73734;BMP280;62039;50.000;9.064;2024-03-06T09:09:53;100817.97;;;6.38
73734;BMP280;62039;50.000;9.064;2024-03-06T09:12:20;100818.53;;;6.42
73734;BMP280;62039;50.000;9.064;2024-03-06T09:14:47;100829.53;;;6.45
73734;BMP280;62039;50.000;9.064;2024-03-06T09:17:14;100829.28;;;6.48
73734;BMP280;62039;50.000;9.064;2024-03-06T09:19:41;100834.13;;;6.53
73734;BMP280;62039;50.000;9.064;2024-03-06T09:22:28;100832.09;;;6.56
73734;BMP280;62039;50.000;9.064;2024-03-06T09:24:58;100828.31;;;6.60
73734;BMP280;62039;50.000;9.064;2024-03-06T09:27:25;100823.69;;;6.64
73734;BMP280;62039;50.000;9.064;2024-03-06T09:29:52;100836.31;;;6.68
73734;BMP280;62039;50.000;9.064;2024-03-06T09:32:19;100830.88;;;6.72
73734;BMP280;62039;50.000;9.064;2024-03-06T09:34:46;100826.13;;;6.77
73734;BMP280;62039;50.000;9.064;2024-03-06T09:37:13;100827.56;;;6.81
73734;BMP280;62039;50.000;9.064;2024-03-06T09:39:40;100821.84;;;6.87
73734;BMP280;62039;50.000;9.064;2024-03-06T09:42:09;100822.06;;;6.95
73734;BMP280;62039;50.000;9.064;2024-03-06T09:44:36;100815.66;;;6.99
73734;BMP280;62039;50.000;9.064;2024-03-06T09:47:06;100817.75;;;7.05
73734;BMP280;62039;50.000;9.064;2024-03-06T09:49:34;100824.22;;;7.11
73734;BMP280;62039;50.000;9.064;2024-03-06T09:52:02;100824.53;;;7.17
73734;BMP280;62039;50.000;9.064;2024-03-06T09:54:30;100823.09;;;7.24
73734;BMP280;62039;50.000;9.064;2024-03-06T09:56:57;100822.34;;;7.33
73734;BMP280;62039;50.000;9.064;2024-03-06T09:59:26;100821.56;;;7.42
73734;BMP280;62039;50.000;9.064;2024-03-06T10:01:55;100813.13;;;7.50
73734;BMP280;62039;50.000;9.064;2024-03-06T10:04:23;100825.41;;;7.59
73734;BMP280;62039;50.000;9.064;2024-03-06T10:06:50;100827.25;;;7.68
73734;BMP280;62039;50.000;9.064;2024-03-06T10:09:19;100827.28;;;7.78
73734;BMP280;62039;50.000;9.064;2024-03-06T10:11:46;100824.03;;;7.85
73734;BMP280;62039;50.000;9.064;2024-03-06T10:14:14;100818.06;;;7.95
73734;BMP280;62039;50.000;9.064;2024-03-06T10:16:55;100825.50;;;8.09
73734;BMP280;62039;50.000;9.064;2024-03-06T10:19:23;100824.69;;;8.18
73734;BMP280;62039;50.000;9.064;2024-03-06T10:21:50;100823.06;;;8.27
73734;BMP280;62039;50.000;9.064;2024-03-06T10:24:21;100822.00;;;8.39
73734;BMP280;62039;50.000;9.064;2024-03-06T10:26:48;100827.25;;;8.48
73734;BMP280;62039;50.000;9.064;2024-03-06T10:29:16;100827.97;;;8.60
73734;BMP280;62039;50.000;9.064;2024-03-06T10:31:50;100826.22;;;8.70
73734;BMP280;62039;50.000;9.064;2024-03-06T10:34:20;100825.69;;;8.76
73734;BMP280;62039;50.000;9.064;2024-03-06T10:36:53;100834.59;;;8.83
73734;BMP280;62039;50.000;9.064;2024-03-06T10:39:20;100832.53;;;8.87
73734;BMP280;62039;50.000;9.064;2024-03-06T10:41:52;100838.28;;;8.90
73734;BMP280;62039;50.000;9.064;2024-03-06T10:44:21;100831.16;;;8.92
73734;BMP280;62039;50.000;9.064;2024-03-06T10:46:56;100839.66;;;8.94
73734;BMP280;62039;50.000;9.064;2024-03-06T10:49:28;100842.69;;;8.99
73734;BMP280;62039;50.000;9.064;2024-03-06T10:51:57;100840.47;;;9.04
73734;BMP280;62039;50.000;9.064;2024-03-06T10:54:27;100835.81;;;9.08
73734;BMP280;62039;50.000;9.064;2024-03-06T10:56:54;100841.56;;;9.12
73734;BMP280;62039;50.000;9.064;2024-03-06T10:59:24;100836.91;;;9.15
73734;BMP280;62039;50.000;9.064;2024-03-06T11:01:52;100837.75;;;9.16
73734;BMP280;62039;50.000;9.064;2024-03-06T11:04:19;100833.34;;;9.16
73734;BMP280;62039;50.000;9.064;2024-03-06T11:06:49;100841.56;;;9.21
73734;BMP280;62039;50.000;9.064;2024-03-06T11:09:16;100831.16;;;9.21
73734;BMP280;62039;50.000;9.064;2024-03-06T11:11:50;100833.31;;;9.26
73734;BMP280;62039;50.000;9.064;2024-03-06T11:14:19;100845.97;;;9.30
73734;BMP280;62039;50.000;9.064;2024-03-06T11:16:58;100839.38;;;9.36
73734;BMP280;62039;50.000;9.064;2024-03-06T11:19:25;100844.97;;;9.41
73734;BMP280;62039;50.000;9.064;2024-03-06T11:21:57;100834.94;;;9.46
73734;BMP280;62039;50.000;9.064;2024-03-06T11:24:32;100837.16;;;9.51
73734;BMP280;62039;50.000;9.064;2024-03-06T11:27:00;100844.53;;;9.55
73734;BMP280;62039;50.000;9.064;2024-03-06T11:29:28;100848.41;;;9.61
73734;BMP280;62039;50.000;9.064;2024-03-06T11:32:04;100840.31;;;9.64
73734;BMP280;62039;50.000;9.064;2024-03-06T11:34:31;100845.09;;;9.68
73734;BMP280;62039;50.000;9.064;2024-03-06T11:37:03;100846.44;;;9.72
73734;BMP280;62039;50.000;9.064;2024-03-06T11:39:33;100840.25;;;9.73
73734;BMP280;62039;50.000;9.064;2024-03-06T11:42:00;100840.13;;;9.75
73734;BMP280;62039;50.000;9.064;2024-03-06T11:44:27;100845.22;;;9.76
73734;BMP280;62039;50.000;9.064;2024-03-06T11:46:58;100838.84;;;9.79
73734;BMP280;62039;50.000;9.064;2024-03-06T11:49:26;100834.34;;;9.81
73734;BMP280;62039;50.000;9.064;2024-03-06T11:51:55;100831.44;;;9.84
73734;BMP280;62039;50.000;9.064;2024-03-06T11:54:25;100830.31;;;9.87
73734;BMP280;62039;50.000;9.064;2024-03-06T11:56:54;100824.97;;;9.88
73734;BMP280;62039;50.000;9.064;2024-03-06T11:59:22;100828.09;;;9.92
73734;BMP280;62039;50.000;9.064;2024-03-06T12:01:49;100831.13;;;9.97
73734;BMP280;62039;50.000;9.064;2024-03-06T12:04:16;100823.53;;;10.03
73734;BMP280;62039;50.000;9.064;2024-03-06T12:06:43;100825.44;;;10.11
73734;BMP280;62039;50.000;9.064;2024-03-06T12:09:10;100823.19;;;10.16
73734;BMP280;62039;50.000;9.064;2024-03-06T12:11:39;100816.56;;;10.21
73734;BMP280;62039;50.000;9.064;2024-03-06T12:14:06;100820.53;;;10.26
73734;BMP280;62039;50.000;9.064;2024-03-06T12:16:33;100811.31;;;10.31
73734;BMP280;62039;50.000;9.064;2024-03-06T12:19:00;100819.50;;;10.36
73734;BMP280;62039;50.000;9.064;2024-03-06T12:21:28;100825.25;;;10.40
73734;BMP280;62039;50.000;9.064;2024-03-06T12:24:02;100821.22;;;10.45
73734;BMP280;62039;50.000;9.064;2024-03-06T12:26:29;100818.31;;;10.48
73734;BMP280;62039;50.000;9.064;2024-03-06T12:29:06;100820.50;;;10.53
73734;BMP280;62039;50.000;9.064;2024-03-06T12:31:34;100820.94;;;10.58
73734;BMP280;62039;50.000;9.064;2024-03-06T12:34:02;100816.06;;;10.63
73734;BMP280;62039;50.000;9.064;2024-03-06T12:36:31;100820.84;;;10.68
73734;BMP280;62039;50.000;9.064;2024-03-06T12:38:59;100809.66;;;10.75
73734;BMP280;62039;50.000;9.064;2024-03-06T12:41:26;100811.50;;;10.83
73734;BMP280;62039;50.000;9.064;2024-03-06T12:43:53;100812.41;;;10.91
73734;BMP280;62039;50.000;9.064;2024-03-06T12:46:23;100812.16;;;11.03
73734;BMP280;62039;50.000;9.064;2024-03-06T12:48:50;100811.78;;;11.15
73734;BMP280;62039;50.000;9.064;2024-03-06T12:51:18;100824.44;;;11.28
73734;BMP280;62039;50.000;9.064;2024-03-06T12:53:45;100815.56;;;11.38
73734;BMP280;62039;50.000;9.064;2024-03-06T12:56:12;100811.72;;;11.51
73734;BMP280;62039;50.000;9.064;2024-03-06T12:58:39;100808.16;;;11.60
73734;BMP280;62039;50.000;9.064;2024-03-06T13:01:06;100804.97;;;11.66
73734;BMP280;62039;50.000;9.064;2024-03-06T13:03:36;100807.91;;;11.71
73734;BMP280;62039;50.000;9.064;2024-03-06T13:06:03;100800.41;;;11.76
73734;BMP280;62039;50.000;9.064;2024-03-06T13:08:31;100800.94;;;11.80
73734;BMP280;62039;50.000;9.064;2024-03-06T13:10:58;100801.44;;;11.83
73734;BMP280;62039;50.000;9.064;2024-03-06T13:13:25;100804.72;;;11.85
73734;BMP280;62039;50.000;9.064;2024-03-06T13:15:52;100801.13;;;11.86
73734;BMP280;62039;50.000;9.064;2024-03-06T13:18:19;100799.16;;;11.88
73734;BMP280;62039;50.000;9.064;2024-03-06T13:20:48;100792.13;;;11.89
73734;BMP280;62039;50.000;9.064;2024-03-06T13:23:16;100786.88;;;11.89
73734;BMP280;62039;50.000;9.064;2024-03-06T13:25:43;100794.59;;;11.90
73734;BMP280;62039;50.000;9.064;2024-03-06T13:28:10;100795.41;;;11.91
73734;BMP280;62039;50.000;9.064;2024-03-06T13:30:37;100791.81;;;11.92
73734;BMP280;62039;50.000;9.064;2024-03-06T13:33:04;100782.66;;;11.96
73734;BMP280;62039;50.000;9.064;2024-03-06T13:35:31;100788.22;;;12.01
73734;BMP280;62039;50.000;9.064;2024-03-06T13:38:01;100793.66;;;12.07
73734;BMP280;62039;50.000;9.064;2024-03-06T13:40:28;100787.00;;;12.13
73734;BMP280;62039;50.000;9.064;2024-03-06T13:42:55;100798.13;;;12.23
73734;BMP280;62039;50.000;9.064;2024-03-06T13:45:22;100791.13;;;12.32
73734;BMP280;62039;50.000;9.064;2024-03-06T13:47:49;100790.19;;;12.41
73734;BMP280;62039;50.000;9.064;2024-03-06T13:50:16;100795.44;;;12.49
73734;BMP280;62039;50.000;9.064;2024-03-06T13:52:44;100788.56;;;12.56
73734;BMP280;62039;50.000;9.064;2024-03-06T13:55:13;100794.00;;;12.63
73734;BMP280;62039;50.000;9.064;2024-03-06T13:57:40;100802.19;;;12.68
73734;BMP280;62039;50.000;9.064;2024-03-06T14:00:09;100787.28;;;12.68
73734;BMP280;62039;50.000;9.064;2024-03-06T14:02:36;100798.56;;;12.69
73734;BMP280;62039;50.000;9.064;2024-03-06T14:05:04;100797.13;;;12.66
73734;BMP280;62039;50.000;9.064;2024-03-06T14:07:31;100801.69;;;12.64
73734;BMP280;62039;50.000;9.064;2024-03-06T14:09:58;100800.41;;;12.60
73734;BMP280;62039;50.000;9.064;2024-03-06T14:12:32;100792.19;;;12.55
73734;BMP280;62039;50.000;9.064;2024-03-06T14:14:59;100800.84;;;12.47